sensor_id;sensor_type;location;lat;lon;timestamp;temperature;humidity
46754;DHT22;32500;50.620;3.400;2023-06-10T00:01:45;22.60;64.00
46754;DHT22;32500;50.620;3.400;2023-06-10T00:04:16;22.60;63.40
46754;DHT22;32500;50.620;3.400;2023-06-10T00:06:43;22.60;64.20
46754;DHT22;32500;50.620;3.400;2023-06-10T00:09:09;22.60;63.70
46754;DHT22;32500;50.620;3.400;2023-06-10T00:11:36;22.50;64.20
46754;DHT22;32500;50.620;3.400;2023-06-10T00:14:02;22.50;64.10
46754;DHT22;32500;50.620;3.400;2023-06-10T00:16:28;22.50;64.10
46754;DHT22;32500;50.620;3.400;2023-06-10T00:18:54;22.50;64.20
46754;DHT22;32500;50.620;3.400;2023-06-10T00:21:30;22.40;64.30
46754;DHT22;32500;50.620;3.400;2023-06-10T00:24:03;22.40;64.90
46754;DHT22;32500;50.620;3.400;2023-06-10T00:26:30;22.40;65.20
46754;DHT22;32500;50.620;3.400;2023-06-10T00:28:56;22.40;64.90
46754;DHT22;32500;50.620;3.400;2023-06-10T00:31:22;22.30;65.40
46754;DHT22;32500;50.620;3.400;2023-06-10T00:33:47;22.30;65.50
46754;DHT22;32500;50.620;3.400;2023-06-10T00:36:13;22.30;65.90
46754;DHT22;32500;50.620;3.400;2023-06-10T00:38:39;22.30;66.30
46754;DHT22;32500;50.620;3.400;2023-06-10T00:41:06;22.30;66.50
46754;DHT22;32500;50.620;3.400;2023-06-10T00:43:32;22.20;66.10
46754;DHT22;32500;50.620;3.400;2023-06-10T00:45:57;22.20;66.30
46754;DHT22;32500;50.620;3.400;2023-06-10T00:48:23;22.20;66.70
46754;DHT22;32500;50.620;3.400;2023-06-10T00:50:50;22.20;66.40
46754;DHT22;32500;50.620;3.400;2023-06-10T00:53:16;22.20;66.70
46754;DHT22;32500;50.620;3.400;2023-06-10T00:55:42;22.20;66.80
46754;DHT22;32500;50.620;3.400;2023-06-10T00:58:08;22.20;66.80
46754;DHT22;32500;50.620;3.400;2023-06-10T01:00:34;22.20;66.50
46754;DHT22;32500;50.620;3.400;2023-06-10T01:03:00;22.20;66.80
46754;DHT22;32500;50.620;3.400;2023-06-10T01:05:26;22.20;66.80
46754;DHT22;32500;50.620;3.400;2023-06-10T01:10:35;22.10;66.30
46754;DHT22;32500;50.620;3.400;2023-06-10T01:13:02;22.10;67.00
46754;DHT22;32500;50.620;3.400;2023-06-10T01:15:31;22.10;66.30
46754;DHT22;32500;50.620;3.400;2023-06-10T01:20:28;22.10;66.90
46754;DHT22;32500;50.620;3.400;2023-06-10T01:22:55;22.10;66.80
46754;DHT22;32500;50.620;3.400;2023-06-10T01:25:22;22.10;67.10
46754;DHT22;32500;50.620;3.400;2023-06-10T01:30:27;22.10;67.10
46754;DHT22;32500;50.620;3.400;2023-06-10T01:32:55;22.10;66.90
46754;DHT22;32500;50.620;3.400;2023-06-10T01:35:25;22.00;67.20
46754;DHT22;32500;50.620;3.400;2023-06-10T01:37:53;22.00;67.00
46754;DHT22;32500;50.620;3.400;2023-06-10T01:40:20;22.00;67.20
46754;DHT22;32500;50.620;3.400;2023-06-10T01:42:46;22.00;66.90
46754;DHT22;32500;50.620;3.400;2023-06-10T01:45:12;22.00;67.10
46754;DHT22;32500;50.620;3.400;2023-06-10T01:47:37;22.00;67.40
46754;DHT22;32500;50.620;3.400;2023-06-10T01:50:03;22.00;67.10
46754;DHT22;32500;50.620;3.400;2023-06-10T01:52:29;22.00;67.80
46754;DHT22;32500;50.620;3.400;2023-06-10T01:54:54;21.90;66.50
46754;DHT22;32500;50.620;3.400;2023-06-10T01:57:20;21.90;66.90
46754;DHT22;32500;50.620;3.400;2023-06-10T01:59:46;21.90;67.20
46754;DHT22;32500;50.620;3.400;2023-06-10T02:02:11;21.90;67.90
46754;DHT22;32500;50.620;3.400;2023-06-10T02:04:37;21.90;67.60
46754;DHT22;32500;50.620;3.400;2023-06-10T02:07:03;21.90;67.30
46754;DHT22;32500;50.620;3.400;2023-06-10T02:09:30;21.90;67.70
46754;DHT22;32500;50.620;3.400;2023-06-10T02:11:56;21.90;68.40
46754;DHT22;32500;50.620;3.400;2023-06-10T02:14:22;21.90;68.10
46754;DHT22;32500;50.620;3.400;2023-06-10T02:16:48;21.80;68.20
46754;DHT22;32500;50.620;3.400;2023-06-10T02:19:13;21.80;68.80
46754;DHT22;32500;50.620;3.400;2023-06-10T02:21:39;21.80;68.40
46754;DHT22;32500;50.620;3.400;2023-06-10T02:24:05;21.80;68.20
46754;DHT22;32500;50.620;3.400;2023-06-10T02:26:31;21.80;68.80
46754;DHT22;32500;50.620;3.400;2023-06-10T02:28:57;21.70;68.30
46754;DHT22;32500;50.620;3.400;2023-06-10T02:31:22;21.70;68.20
46754;DHT22;32500;50.620;3.400;2023-06-10T02:33:49;21.70;68.10
46754;DHT22;32500;50.620;3.400;2023-06-10T02:36:15;21.70;68.20
46754;DHT22;32500;50.620;3.400;2023-06-10T02:38:41;21.70;68.10
46754;DHT22;32500;50.620;3.400;2023-06-10T02:41:07;21.70;68.30
46754;DHT22;32500;50.620;3.400;2023-06-10T02:43:33;21.70;68.60
46754;DHT22;32500;50.620;3.400;2023-06-10T02:45:59;21.60;68.80
46754;DHT22;32500;50.620;3.400;2023-06-10T02:48:24;21.60;69.00
46754;DHT22;32500;50.620;3.400;2023-06-10T02:50:50;21.60;68.90
46754;DHT22;32500;50.620;3.400;2023-06-10T02:53:16;21.60;68.60
46754;DHT22;32500;50.620;3.400;2023-06-10T02:55:42;21.60;68.90
46754;DHT22;32500;50.620;3.400;2023-06-10T02:58:08;21.60;68.90
46754;DHT22;32500;50.620;3.400;2023-06-10T03:00:34;21.50;69.10
46754;DHT22;32500;50.620;3.400;2023-06-10T03:02:59;21.50;69.10
46754;DHT22;32500;50.620;3.400;2023-06-10T03:05:29;21.50;69.40
46754;DHT22;32500;50.620;3.400;2023-06-10T03:07:55;21.50;69.20
46754;DHT22;32500;50.620;3.400;2023-06-10T03:10:20;21.50;69.00
46754;DHT22;32500;50.620;3.400;2023-06-10T03:12:46;21.40;69.20
46754;DHT22;32500;50.620;3.400;2023-06-10T03:15:12;21.40;70.10
46754;DHT22;32500;50.620;3.400;2023-06-10T03:17:37;21.40;69.50
46754;DHT22;32500;50.620;3.400;2023-06-10T03:20:03;21.40;69.80
46754;DHT22;32500;50.620;3.400;2023-06-10T03:22:33;21.40;70.30
46754;DHT22;32500;50.620;3.400;2023-06-10T03:24:59;21.40;69.80
46754;DHT22;32500;50.620;3.400;2023-06-10T03:27:25;21.40;71.40
46754;DHT22;32500;50.620;3.400;2023-06-10T03:29:51;21.40;69.90
46754;DHT22;32500;50.620;3.400;2023-06-10T03:32:16;21.40;70.10
46754;DHT22;32500;50.620;3.400;2023-06-10T03:34:43;21.30;70.30
46754;DHT22;32500;50.620;3.400;2023-06-10T03:37:10;21.30;70.00
46754;DHT22;32500;50.620;3.400;2023-06-10T03:39:36;21.30;70.60
46754;DHT22;32500;50.620;3.400;2023-06-10T03:42:01;21.30;70.60
46754;DHT22;32500;50.620;3.400;2023-06-10T03:44:27;21.30;70.80
46754;DHT22;32500;50.620;3.400;2023-06-10T03:46:54;21.30;70.60
46754;DHT22;32500;50.620;3.400;2023-06-10T03:49:21;21.30;70.60
46754;DHT22;32500;50.620;3.400;2023-06-10T03:51:52;21.30;70.70
46754;DHT22;32500;50.620;3.400;2023-06-10T03:54:18;21.20;70.70
46754;DHT22;32500;50.620;3.400;2023-06-10T03:56:43;21.20;70.70
46754;DHT22;32500;50.620;3.400;2023-06-10T03:59:09;21.20;71.00
46754;DHT22;32500;50.620;3.400;2023-06-10T04:01:35;21.20;70.80
46754;DHT22;32500;50.620;3.400;2023-06-10T04:04:04;21.20;70.60
46754;DHT22;32500;50.620;3.400;2023-06-10T04:06:30;21.20;71.20
46754;DHT22;32500;50.620;3.400;2023-06-10T04:08:56;21.20;70.60
46754;DHT22;32500;50.620;3.400;2023-06-10T04:11:25;21.30;70.90
46754;DHT22;32500;50.620;3.400;2023-06-10T04:13:50;21.30;71.10
46754;DHT22;32500;50.620;3.400;2023-06-10T04:16:16;21.40;71.20
46754;DHT22;32500;50.620;3.400;2023-06-10T04:18:42;21.40;70.10
46754;DHT22;32500;50.620;3.400;2023-06-10T04:21:08;21.30;70.40
46754;DHT22;32500;50.620;3.400;2023-06-10T04:23:35;21.40;69.70
46754;DHT22;32500;50.620;3.400;2023-06-10T04:26:02;21.40;70.50
46754;DHT22;32500;50.620;3.400;2023-06-10T04:28:28;21.40;69.70
46754;DHT22;32500;50.620;3.400;2023-06-10T04:30:53;21.40;70.40
46754;DHT22;32500;50.620;3.400;2023-06-10T04:33:19;21.50;70.00
46754;DHT22;32500;50.620;3.400;2023-06-10T04:35:45;21.60;70.00
46754;DHT22;32500;50.620;3.400;2023-06-10T04:38:13;21.60;67.30
46754;DHT22;32500;50.620;3.400;2023-06-10T04:40:39;21.90;65.00
46754;DHT22;32500;50.620;3.400;2023-06-10T04:43:05;22.00;60.60
46754;DHT22;32500;50.620;3.400;2023-06-10T04:45:31;22.10;59.90
46754;DHT22;32500;50.620;3.400;2023-06-10T04:47:56;22.10;59.30
46754;DHT22;32500;50.620;3.400;2023-06-10T04:50:23;22.10;59.40
46754;DHT22;32500;50.620;3.400;2023-06-10T04:52:49;22.00;59.30
46754;DHT22;32500;50.620;3.400;2023-06-10T04:55:15;21.90;60.30
46754;DHT22;32500;50.620;3.400;2023-06-10T04:57:41;21.90;59.60
46754;DHT22;32500;50.620;3.400;2023-06-10T05:00:07;22.00;59.00
46754;DHT22;32500;50.620;3.400;2023-06-10T05:02:34;22.10;59.10
46754;DHT22;32500;50.620;3.400;2023-06-10T05:05:00;22.00;59.90
46754;DHT22;32500;50.620;3.400;2023-06-10T05:07:25;22.00;60.70
46754;DHT22;32500;50.620;3.400;2023-06-10T05:09:51;22.00;59.50
46754;DHT22;32500;50.620;3.400;2023-06-10T05:12:17;22.00;59.30
46754;DHT22;32500;50.620;3.400;2023-06-10T05:14:42;22.10;59.40
46754;DHT22;32500;50.620;3.400;2023-06-10T05:17:10;22.10;59.10
46754;DHT22;32500;50.620;3.400;2023-06-10T05:19:35;22.20;59.40
46754;DHT22;32500;50.620;3.400;2023-06-10T05:22:02;22.20;59.20
46754;DHT22;32500;50.620;3.400;2023-06-10T05:24:28;22.20;59.50
46754;DHT22;32500;50.620;3.400;2023-06-10T05:26:54;22.30;58.60
46754;DHT22;32500;50.620;3.400;2023-06-10T05:29:19;22.30;58.60
46754;DHT22;32500;50.620;3.400;2023-06-10T05:31:45;22.30;59.50
46754;DHT22;32500;50.620;3.400;2023-06-10T05:34:11;22.40;59.40
46754;DHT22;32500;50.620;3.400;2023-06-10T05:36:37;22.40;58.50
46754;DHT22;32500;50.620;3.400;2023-06-10T05:39:02;22.40;59.10
46754;DHT22;32500;50.620;3.400;2023-06-10T05:41:28;22.40;59.10
46754;DHT22;32500;50.620;3.400;2023-06-10T05:43:54;22.40;60.10
46754;DHT22;32500;50.620;3.400;2023-06-10T05:46:20;22.50;58.90
46754;DHT22;32500;50.620;3.400;2023-06-10T05:48:46;22.50;59.20
46754;DHT22;32500;50.620;3.400;2023-06-10T05:51:11;22.60;58.60
46754;DHT22;32500;50.620;3.400;2023-06-10T05:53:37;22.50;58.30
46754;DHT22;32500;50.620;3.400;2023-06-10T05:56:04;22.60;58.70
46754;DHT22;32500;50.620;3.400;2023-06-10T05:58:29;22.60;58.60
46754;DHT22;32500;50.620;3.400;2023-06-10T06:00:55;22.70;58.20
46754;DHT22;32500;50.620;3.400;2023-06-10T06:03:21;22.70;59.30
46754;DHT22;32500;50.620;3.400;2023-06-10T06:05:47;22.70;58.80
46754;DHT22;32500;50.620;3.400;2023-06-10T06:08:12;22.70;59.80
46754;DHT22;32500;50.620;3.400;2023-06-10T06:10:45;22.70;58.90
46754;DHT22;32500;50.620;3.400;2023-06-10T06:13:10;22.80;58.50
46754;DHT22;32500;50.620;3.400;2023-06-10T06:15:36;22.80;58.20
46754;DHT22;32500;50.620;3.400;2023-06-10T06:18:02;22.80;59.10
46754;DHT22;32500;50.620;3.400;2023-06-10T06:20:27;22.80;58.20
46754;DHT22;32500;50.620;3.400;2023-06-10T06:22:53;22.80;58.90
46754;DHT22;32500;50.620;3.400;2023-06-10T06:25:19;22.80;58.50
46754;DHT22;32500;50.620;3.400;2023-06-10T06:27:45;22.90;58.80
46754;DHT22;32500;50.620;3.400;2023-06-10T06:30:11;22.90;59.10
46754;DHT22;32500;50.620;3.400;2023-06-10T06:32:37;22.90;58.80
46754;DHT22;32500;50.620;3.400;2023-06-10T06:35:03;23.00;59.00
46754;DHT22;32500;50.620;3.400;2023-06-10T06:37:31;23.00;58.40
46754;DHT22;32500;50.620;3.400;2023-06-10T06:39:58;23.00;58.90
46754;DHT22;32500;50.620;3.400;2023-06-10T06:42:23;23.10;58.80
46754;DHT22;32500;50.620;3.400;2023-06-10T06:44:49;23.10;58.30
46754;DHT22;32500;50.620;3.400;2023-06-10T06:47:15;23.20;58.10
46754;DHT22;32500;50.620;3.400;2023-06-10T06:49:43;23.20;58.40
46754;DHT22;32500;50.620;3.400;2023-06-10T06:52:08;23.20;57.80
46754;DHT22;32500;50.620;3.400;2023-06-10T06:54:34;23.30;58.10
46754;DHT22;32500;50.620;3.400;2023-06-10T06:57:00;23.30;58.10
46754;DHT22;32500;50.620;3.400;2023-06-10T06:59:26;23.30;57.70
46754;DHT22;32500;50.620;3.400;2023-06-10T07:01:51;23.40;57.80
46754;DHT22;32500;50.620;3.400;2023-06-10T07:04:19;23.40;58.10
46754;DHT22;32500;50.620;3.400;2023-06-10T07:06:47;23.40;58.20
46754;DHT22;32500;50.620;3.400;2023-06-10T07:09:13;23.50;57.90
46754;DHT22;32500;50.620;3.400;2023-06-10T07:11:38;23.50;58.00
46754;DHT22;32500;50.620;3.400;2023-06-10T07:14:06;23.60;58.10
46754;DHT22;32500;50.620;3.400;2023-06-10T07:16:32;23.60;57.30
46754;DHT22;32500;50.620;3.400;2023-06-10T07:18:57;23.70;57.40
46754;DHT22;32500;50.620;3.400;2023-06-10T07:21:23;23.70;57.10
46754;DHT22;32500;50.620;3.400;2023-06-10T07:23:49;23.70;57.20
46754;DHT22;32500;50.620;3.400;2023-06-10T07:26:17;23.80;56.80
46754;DHT22;32500;50.620;3.400;2023-06-10T07:28:43;23.80;57.00
46754;DHT22;32500;50.620;3.400;2023-06-10T07:31:09;23.80;57.10
46754;DHT22;32500;50.620;3.400;2023-06-10T07:33:35;23.80;57.00
46754;DHT22;32500;50.620;3.400;2023-06-10T07:36:02;23.80;57.70
46754;DHT22;32500;50.620;3.400;2023-06-10T07:38:27;23.90;57.20
46754;DHT22;32500;50.620;3.400;2023-06-10T07:40:53;23.90;57.50
46754;DHT22;32500;50.620;3.400;2023-06-10T07:43:19;24.00;57.40
46754;DHT22;32500;50.620;3.400;2023-06-10T07:45:45;24.00;57.00
46754;DHT22;32500;50.620;3.400;2023-06-10T07:48:10;24.00;56.50
46754;DHT22;32500;50.620;3.400;2023-06-10T07:50:36;24.10;56.50
46754;DHT22;32500;50.620;3.400;2023-06-10T07:53:02;24.10;57.00
46754;DHT22;32500;50.620;3.400;2023-06-10T07:55:28;24.20;57.00
46754;DHT22;32500;50.620;3.400;2023-06-10T07:57:54;24.20;56.30
46754;DHT22;32500;50.620;3.400;2023-06-10T08:00:20;24.20;56.90
46754;DHT22;32500;50.620;3.400;2023-06-10T08:02:46;24.30;56.50
46754;DHT22;32500;50.620;3.400;2023-06-10T08:05:12;24.30;57.00
46754;DHT22;32500;50.620;3.400;2023-06-10T08:07:41;24.30;56.80
46754;DHT22;32500;50.620;3.400;2023-06-10T08:10:07;24.40;56.50
46754;DHT22;32500;50.620;3.400;2023-06-10T08:12:33;24.40;56.70
46754;DHT22;32500;50.620;3.400;2023-06-10T08:14:59;24.40;56.30
46754;DHT22;32500;50.620;3.400;2023-06-10T08:17:25;24.40;56.70
46754;DHT22;32500;50.620;3.400;2023-06-10T08:19:52;24.30;57.40
46754;DHT22;32500;50.620;3.400;2023-06-10T08:22:18;24.20;58.20
46754;DHT22;32500;50.620;3.400;2023-06-10T08:24:43;24.20;58.30
46754;DHT22;32500;50.620;3.400;2023-06-10T08:27:09;24.20;58.60
46754;DHT22;32500;50.620;3.400;2023-06-10T08:29:35;24.20;58.70
46754;DHT22;32500;50.620;3.400;2023-06-10T08:32:01;24.20;58.60
46754;DHT22;32500;50.620;3.400;2023-06-10T08:34:27;24.30;58.50
46754;DHT22;32500;50.620;3.400;2023-06-10T08:36:53;24.30;58.60
46754;DHT22;32500;50.620;3.400;2023-06-10T08:39:21;24.30;58.40
46754;DHT22;32500;50.620;3.400;2023-06-10T08:44:29;24.30;58.20
46754;DHT22;32500;50.620;3.400;2023-06-10T08:47:14;24.30;57.90
46754;DHT22;32500;50.620;3.400;2023-06-10T08:49:44;24.40;58.20
46754;DHT22;32500;50.620;3.400;2023-06-10T08:52:17;24.40;58.20
46754;DHT22;32500;50.620;3.400;2023-06-10T08:57:13;24.50;58.30
46754;DHT22;32500;50.620;3.400;2023-06-10T08:59:41;24.40;58.20
46754;DHT22;32500;50.620;3.400;2023-06-10T09:02:07;24.50;58.00
46754;DHT22;32500;50.620;3.400;2023-06-10T09:04:35;24.50;57.90
46754;DHT22;32500;50.620;3.400;2023-06-10T09:07:02;24.50;57.70
46754;DHT22;32500;50.620;3.400;2023-06-10T09:09:29;24.50;56.80
46754;DHT22;32500;50.620;3.400;2023-06-10T09:11:57;24.50;56.20
46754;DHT22;32500;50.620;3.400;2023-06-10T09:14:23;24.60;56.40
46754;DHT22;32500;50.620;3.400;2023-06-10T09:16:49;24.60;56.20
46754;DHT22;32500;50.620;3.400;2023-06-10T09:19:16;24.60;56.30
46754;DHT22;32500;50.620;3.400;2023-06-10T09:21:42;24.70;56.40
46754;DHT22;32500;50.620;3.400;2023-06-10T09:24:08;24.70;56.40
46754;DHT22;32500;50.620;3.400;2023-06-10T09:26:34;24.70;56.40
46754;DHT22;32500;50.620;3.400;2023-06-10T09:29:04;24.70;56.50
46754;DHT22;32500;50.620;3.400;2023-06-10T09:31:31;24.70;56.40
46754;DHT22;32500;50.620;3.400;2023-06-10T09:34:14;24.80;56.40
46754;DHT22;32500;50.620;3.400;2023-06-10T09:36:40;24.80;56.30
46754;DHT22;32500;50.620;3.400;2023-06-10T09:39:14;24.80;56.20
46754;DHT22;32500;50.620;3.400;2023-06-10T09:41:44;24.80;56.30
46754;DHT22;32500;50.620;3.400;2023-06-10T09:44:20;24.90;56.30
46754;DHT22;32500;50.620;3.400;2023-06-10T09:46:49;24.90;56.30
46754;DHT22;32500;50.620;3.400;2023-06-10T09:49:19;24.90;56.40
46754;DHT22;32500;50.620;3.400;2023-06-10T09:54:17;24.90;56.30
46754;DHT22;32500;50.620;3.400;2023-06-10T09:56:47;24.90;56.30
46754;DHT22;32500;50.620;3.400;2023-06-10T09:59:12;25.00;56.20
46754;DHT22;32500;50.620;3.400;2023-06-10T10:01:38;25.00;56.20
46754;DHT22;32500;50.620;3.400;2023-06-10T10:04:04;25.00;56.00
46754;DHT22;32500;50.620;3.400;2023-06-10T10:06:30;25.00;55.90
46754;DHT22;32500;50.620;3.400;2023-06-10T10:08:56;25.10;55.90
46754;DHT22;32500;50.620;3.400;2023-06-10T10:11:22;25.10;55.80
46754;DHT22;32500;50.620;3.400;2023-06-10T10:13:50;25.10;55.70
46754;DHT22;32500;50.620;3.400;2023-06-10T10:16:32;25.10;55.70
46754;DHT22;32500;50.620;3.400;2023-06-10T10:19:07;25.20;55.60
46754;DHT22;32500;50.620;3.400;2023-06-10T10:21:44;25.20;55.40
46754;DHT22;32500;50.620;3.400;2023-06-10T10:24:20;25.20;55.20
46754;DHT22;32500;50.620;3.400;2023-06-10T10:26:48;25.20;55.10
46754;DHT22;32500;50.620;3.400;2023-06-10T10:29:29;25.20;54.80
46754;DHT22;32500;50.620;3.400;2023-06-10T10:31:56;25.30;54.70
46754;DHT22;32500;50.620;3.400;2023-06-10T10:34:41;25.20;54.40
46754;DHT22;32500;50.620;3.400;2023-06-10T10:37:08;25.30;54.40
46754;DHT22;32500;50.620;3.400;2023-06-10T10:39:35;25.30;54.40
46754;DHT22;32500;50.620;3.400;2023-06-10T10:42:01;25.30;54.80
46754;DHT22;32500;50.620;3.400;2023-06-10T10:44:29;25.40;54.50
46754;DHT22;32500;50.620;3.400;2023-06-10T10:46:55;25.40;54.40
46754;DHT22;32500;50.620;3.400;2023-06-10T10:49:22;25.40;54.30
46754;DHT22;32500;50.620;3.400;2023-06-10T10:52:01;25.40;54.10
46754;DHT22;32500;50.620;3.400;2023-06-10T10:54:34;25.40;53.90
46754;DHT22;32500;50.620;3.400;2023-06-10T10:57:16;25.40;53.70
46754;DHT22;32500;50.620;3.400;2023-06-10T10:59:56;25.50;54.00
46754;DHT22;32500;50.620;3.400;2023-06-10T11:02:41;25.50;54.20
46754;DHT22;32500;50.620;3.400;2023-06-10T11:05:09;25.50;54.10
46754;DHT22;32500;50.620;3.400;2023-06-10T11:07:35;25.50;54.20
46754;DHT22;32500;50.620;3.400;2023-06-10T11:10:08;25.60;54.10
46754;DHT22;32500;50.620;3.400;2023-06-10T11:12:54;25.60;54.40
46754;DHT22;32500;50.620;3.400;2023-06-10T11:15:27;25.60;54.40
46754;DHT22;32500;50.620;3.400;2023-06-10T11:18:25;25.60;54.50
46754;DHT22;32500;50.620;3.400;2023-06-10T11:21:01;25.60;54.10
46754;DHT22;32500;50.620;3.400;2023-06-10T11:28:38;25.70;53.80
46754;DHT22;32500;50.620;3.400;2023-06-10T11:31:03;25.70;54.30
46754;DHT22;32500;50.620;3.400;2023-06-10T11:33:29;25.70;54.10
46754;DHT22;32500;50.620;3.400;2023-06-10T11:35:56;25.70;53.40
46754;DHT22;32500;50.620;3.400;2023-06-10T11:38:21;25.80;53.10
46754;DHT22;32500;50.620;3.400;2023-06-10T11:40:50;25.70;52.20
46754;DHT22;32500;50.620;3.400;2023-06-10T11:43:19;25.80;52.90
46754;DHT22;32500;50.620;3.400;2023-06-10T11:45:45;25.80;53.40
46754;DHT22;32500;50.620;3.400;2023-06-10T11:48:13;25.80;53.80
46754;DHT22;32500;50.620;3.400;2023-06-10T11:50:39;25.80;55.80
46754;DHT22;32500;50.620;3.400;2023-06-10T11:53:08;25.90;57.50
46754;DHT22;32500;50.620;3.400;2023-06-10T11:55:48;25.90;58.10
46754;DHT22;32500;50.620;3.400;2023-06-10T11:58:15;26.00;56.20
46754;DHT22;32500;50.620;3.400;2023-06-10T12:00:59;26.00;56.00
46754;DHT22;32500;50.620;3.400;2023-06-10T12:03:27;26.00;55.10
46754;DHT22;32500;50.620;3.400;2023-06-10T12:06:05;26.00;54.10
46754;DHT22;32500;50.620;3.400;2023-06-10T12:08:32;26.10;53.00
46754;DHT22;32500;50.620;3.400;2023-06-10T12:10:58;26.10;53.30
46754;DHT22;32500;50.620;3.400;2023-06-10T12:13:27;26.10;53.00
46754;DHT22;32500;50.620;3.400;2023-06-10T12:15:53;26.20;53.00
46754;DHT22;32500;50.620;3.400;2023-06-10T12:18:23;26.20;53.10
46754;DHT22;32500;50.620;3.400;2023-06-10T12:20:50;26.30;53.20
46754;DHT22;32500;50.620;3.400;2023-06-10T12:23:17;26.30;53.30
46754;DHT22;32500;50.620;3.400;2023-06-10T12:25:54;26.30;53.10
46754;DHT22;32500;50.620;3.400;2023-06-10T12:28:24;26.30;52.90
46754;DHT22;32500;50.620;3.400;2023-06-10T12:30:50;26.30;53.10
46754;DHT22;32500;50.620;3.400;2023-06-10T12:33:20;26.40;52.90
46754;DHT22;32500;50.620;3.400;2023-06-10T12:35:50;26.40;52.80
46754;DHT22;32500;50.620;3.400;2023-06-10T12:38:26;26.50;52.80
46754;DHT22;32500;50.620;3.400;2023-06-10T12:40:57;26.50;52.40
46754;DHT22;32500;50.620;3.400;2023-06-10T12:43:26;26.60;52.30
46754;DHT22;32500;50.620;3.400;2023-06-10T12:45:52;26.70;52.10
46754;DHT22;32500;50.620;3.400;2023-06-10T12:48:20;26.70;52.00
46754;DHT22;32500;50.620;3.400;2023-06-10T12:50:58;26.70;51.90
46754;DHT22;32500;50.620;3.400;2023-06-10T12:53:24;26.80;52.00
46754;DHT22;32500;50.620;3.400;2023-06-10T12:55:52;26.80;51.60
46754;DHT22;32500;50.620;3.400;2023-06-10T12:58:19;26.70;52.10
46754;DHT22;32500;50.620;3.400;2023-06-10T13:00:45;26.70;52.10
46754;DHT22;32500;50.620;3.400;2023-06-10T13:03:11;26.70;51.80
46754;DHT22;32500;50.620;3.400;2023-06-10T13:05:37;26.80;52.00
46754;DHT22;32500;50.620;3.400;2023-06-10T13:08:08;26.80;52.20
46754;DHT22;32500;50.620;3.400;2023-06-10T13:10:35;26.80;52.10
46754;DHT22;32500;50.620;3.400;2023-06-10T13:13:02;26.80;52.00
46754;DHT22;32500;50.620;3.400;2023-06-10T13:15:31;26.80;52.10
46754;DHT22;32500;50.620;3.400;2023-06-10T13:17:56;26.80;51.80
46754;DHT22;32500;50.620;3.400;2023-06-10T13:20:22;26.80;51.70
46754;DHT22;32500;50.620;3.400;2023-06-10T13:22:48;26.90;51.60
46754;DHT22;32500;50.620;3.400;2023-06-10T13:25:14;26.90;51.70
46754;DHT22;32500;50.620;3.400;2023-06-10T13:27:40;26.90;51.60
46754;DHT22;32500;50.620;3.400;2023-06-10T13:30:09;26.90;51.40
46754;DHT22;32500;50.620;3.400;2023-06-10T13:32:35;26.90;51.10
46754;DHT22;32500;50.620;3.400;2023-06-10T13:35:01;27.00;50.90
46754;DHT22;32500;50.620;3.400;2023-06-10T13:37:27;27.00;50.80
46754;DHT22;32500;50.620;3.400;2023-06-10T13:39:52;27.10;50.70
46754;DHT22;32500;50.620;3.400;2023-06-10T13:42:19;27.10;50.80
46754;DHT22;32500;50.620;3.400;2023-06-10T13:44:45;27.20;50.50
46754;DHT22;32500;50.620;3.400;2023-06-10T13:47:11;27.20;50.60
46754;DHT22;32500;50.620;3.400;2023-06-10T13:49:36;27.20;51.00
46754;DHT22;32500;50.620;3.400;2023-06-10T13:52:03;27.20;50.90
46754;DHT22;32500;50.620;3.400;2023-06-10T13:54:28;27.20;51.10
46754;DHT22;32500;50.620;3.400;2023-06-10T13:56:54;27.10;51.50
46754;DHT22;32500;50.620;3.400;2023-06-10T13:59:20;27.10;51.10
46754;DHT22;32500;50.620;3.400;2023-06-10T14:01:46;27.10;51.30
46754;DHT22;32500;50.620;3.400;2023-06-10T14:04:12;27.10;51.30
46754;DHT22;32500;50.620;3.400;2023-06-10T14:06:38;27.10;51.10
46754;DHT22;32500;50.620;3.400;2023-06-10T14:09:04;27.20;51.20
46754;DHT22;32500;50.620;3.400;2023-06-10T14:11:30;27.20;51.10
46754;DHT22;32500;50.620;3.400;2023-06-10T14:13:56;27.20;50.90
46754;DHT22;32500;50.620;3.400;2023-06-10T14:16:23;27.20;50.80
46754;DHT22;32500;50.620;3.400;2023-06-10T14:18:49;27.20;50.70
46754;DHT22;32500;50.620;3.400;2023-06-10T14:21:16;27.30;51.00
46754;DHT22;32500;50.620;3.400;2023-06-10T14:23:42;27.40;50.80
46754;DHT22;32500;50.620;3.400;2023-06-10T14:26:09;27.40;50.80
46754;DHT22;32500;50.620;3.400;2023-06-10T14:28:35;27.50;51.00
46754;DHT22;32500;50.620;3.400;2023-06-10T14:31:00;27.50;50.70
46754;DHT22;32500;50.620;3.400;2023-06-10T14:33:26;27.50;51.00
46754;DHT22;32500;50.620;3.400;2023-06-10T14:35:52;27.50;51.70
46754;DHT22;32500;50.620;3.400;2023-06-10T14:38:17;27.50;52.30
46754;DHT22;32500;50.620;3.400;2023-06-10T14:40:43;27.50;53.40
46754;DHT22;32500;50.620;3.400;2023-06-10T14:43:09;27.50;52.90
46754;DHT22;32500;50.620;3.400;2023-06-10T14:45:39;27.50;52.50
46754;DHT22;32500;50.620;3.400;2023-06-10T14:48:05;27.60;53.40
46754;DHT22;32500;50.620;3.400;2023-06-10T14:50:31;27.50;53.20
46754;DHT22;32500;50.620;3.400;2023-06-10T14:52:58;27.50;53.50
46754;DHT22;32500;50.620;3.400;2023-06-10T14:55:24;27.50;51.70
46754;DHT22;32500;50.620;3.400;2023-06-10T14:57:50;27.40;50.70
46754;DHT22;32500;50.620;3.400;2023-06-10T15:00:16;27.40;50.80
46754;DHT22;32500;50.620;3.400;2023-06-10T15:02:45;27.30;49.50
46754;DHT22;32500;50.620;3.400;2023-06-10T15:05:13;27.30;48.80
46754;DHT22;32500;50.620;3.400;2023-06-10T15:07:41;27.30;49.40
46754;DHT22;32500;50.620;3.400;2023-06-10T15:10:07;27.20;47.20
46754;DHT22;32500;50.620;3.400;2023-06-10T15:12:32;27.20;46.30
46754;DHT22;32500;50.620;3.400;2023-06-10T15:14:58;27.10;46.60
46754;DHT22;32500;50.620;3.400;2023-06-10T15:17:24;27.10;46.70
46754;DHT22;32500;50.620;3.400;2023-06-10T15:19:49;27.10;46.50
46754;DHT22;32500;50.620;3.400;2023-06-10T15:22:15;27.10;47.00
46754;DHT22;32500;50.620;3.400;2023-06-10T15:24:41;27.00;46.00
46754;DHT22;32500;50.620;3.400;2023-06-10T15:27:07;26.90;45.00
46754;DHT22;32500;50.620;3.400;2023-06-10T15:29:32;26.90;45.80
46754;DHT22;32500;50.620;3.400;2023-06-10T15:31:58;26.90;44.50
46754;DHT22;32500;50.620;3.400;2023-06-10T15:34:24;26.80;45.40
46754;DHT22;32500;50.620;3.400;2023-06-10T15:36:49;26.80;44.10
46754;DHT22;32500;50.620;3.400;2023-06-10T15:39:15;26.80;44.70
46754;DHT22;32500;50.620;3.400;2023-06-10T15:41:40;26.80;44.00
46754;DHT22;32500;50.620;3.400;2023-06-10T15:44:06;26.80;43.50
46754;DHT22;32500;50.620;3.400;2023-06-10T15:46:32;26.70;43.90
46754;DHT22;32500;50.620;3.400;2023-06-10T15:48:59;26.70;44.20
46754;DHT22;32500;50.620;3.400;2023-06-10T15:51:25;26.80;44.70